EDT,Max TemperatureF,Mean TemperatureF,Min TemperatureF,Max Dew PointF,MeanDew PointF,Min DewpointF,Max Humidity, Mean Humidity, Min Humidity, Max Sea Level PressureIn, Mean Sea Level PressureIn, Min Sea Level PressureIn, Max VisibilityMiles, Mean VisibilityMiles, Min VisibilityMiles, Max Wind SpeedMPH, Mean Wind SpeedMPH, Max Gust SpeedMPH,PrecipitationIn, CloudCover, Events, WindDirDegrees
2012-9-1,78,67,57,65,59,53,100,77,50,30.12,30.00,29.84,10,8,0,8,4,,0.00,2,Fog,109
2012-9-2,71,63,57,61,57,53,94,80,64,30.16,30.11,30.09,10,10,10,9,3,,0.00,7,,97
2012-9-3,75,63,51,60,56,52,100,88,53,30.24,30.19,30.14,10,6,0,9,1,,0.00,4,Fog,253
2012-9-4,66,60,55,64,61,53,100,96,88,30.15,30.05,29.86,10,4,0,6,1,,0.77,7,Fog-Rain,130
2012-9-5,79,72,64,73,67,64,100,89,62,29.86,29.75,29.66,10,6,0,15,3,22,0.35,7,Fog-Rain,182
2012-9-6,77,70,64,67,64,63,97,82,66,29.89,29.85,29.83,10,10,10,5,1,,0.01,4,,184
2012-9-7,84,72,59,66,62,53,100,84,34,29.91,29.87,29.83,10,6,0,8,0,,0.00,3,Fog,320
2012-9-8,81,72,63,71,67,62,100,87,61,29.89,29.75,29.60,10,6,0,13,3,26,0.79,7,Fog-Rain-Thunderstorm,163
2012-9-9,73,64,54,59,54,48,96,74,43,29.85,29.79,29.69,10,10,10,9,4,,0.00,1,Rain,317
2012-9-10,66,57,48,52,47,43,93,70,50,30.02,29.92,29.85,10,10,10,18,7,28,0.01,4,,314
2012-9-11,73,58,45,49,44,37,89,63,29,30.24,30.15,30.02,10,10,10,8,4,,0.00,0,,314
2012-9-12,77,62,46,53,49,44,93,73,40,30.35,30.31,30.25,10,10,10,8,2,,0.00,0,,295
2012-9-13,82,66,51,61,55,49,93,71,37,30.32,30.28,30.22,10,10,10,6,1,,0.00,0,,0
2012-9-14,82,68,54,63,59,53,97,77,49,30.22,30.15,30.04,10,10,8,8,2,,0.01,0,,159
2012-9-15,71,62,51,60,52,43,96,72,41,30.04,30.00,29.96,10,8,4,20,3,26,0.01,2,Rain,303
2012-9-16,66,56,46,44,40,35,89,60,34,30.06,30.02,29.97,10,10,10,15,3,21,0.00,0,,295
2012-9-17,73,55,37,52,44,36,93,73,42,30.09,30.05,30.02,10,10,10,6,1,,0.00,0,,308
2012-9-18,71,58,46,67,57,45,100,87,65,30.04,29.89,29.66,10,8,2,15,4,28,0.08,6,Rain,154
2012-9-19,70,59,46,68,56,35,100,77,32,30.21,29.83,29.66,10,8,2,16,7,24,0.47,5,Rain,276
2012-9-20,64,52,41,44,40,37,93,68,40,30.28,30.22,30.17,10,10,10,7,5,,0.00,0,,348
2012-9-21,63,50,39,52,46,39,97,86,65,30.18,30.14,30.06,10,10,10,8,4,,0.00,2,,341
2012-9-22,69,60,51,59,55,50,100,90,70,30.06,29.93,29.82,10,7,1,8,3,,0.03,6,Rain,340
2012-9-23,68,58,48,58,49,38,93,69,36,30.06,29.91,29.77,10,10,6,13,4,21,0.01,3,Rain,289
2012-9-24,64,52,39,44,40,37,93,69,37,30.12,30.07,30.04,10,10,10,8,2,,0.01,1,,299
2012-9-25,71,54,37,47,41,34,93,66,31,30.13,30.10,30.08,10,10,10,6,2,,0.00,0,,255
2012-9-26,71,62,54,60,57,49,93,81,68,30.10,30.03,29.97,10,10,8,8,3,,0.01,6,Rain,171
2012-9-27,66,55,46,59,47,39,93,71,39,30.25,30.12,29.97,10,10,8,14,4,21,0.01,2,Rain,312
2012-9-28,52,46,41,52,48,39,100,94,80,30.26,30.16,30.05,10,6,2,7,5,,0.15,7,Rain,26
2012-9-29,55,52,48,52,50,48,97,91,80,29.97,29.92,29.88,10,7,2,10,7,,0.12,8,,357
2012-9-30,57,54,51,55,53,50,100,94,88,29.91,29.76,29.66,10,8,0,7,3,,0.03,7,Fog-Rain,345